Station: Mount Hotham Airport  

  Atmospheric Gas Attenuation - ITU Rec 676-11   ----------------- dB/100km -----------------
Date Time Temp RH % AH g/m3 Dew Point Wind Direction Speed kph Gust kph Barometer mB Rainfall Since 9am 24GHz 47GHz 76GHz 122GHz 134GHz 241GHz
08/05 12:30 10 59 5.55 2.4 24 43 1019.2 0 13.2 22.3 29.8 77.7 63.7 216.1
08/05 12:20 10 59 5.55 2.4 20 28 1019.2 0 13.2 22.3 29.8 77.7 63.7 216.1
08/05 12:10 10.1 59 5.58 2.5 24 30 1019.3 0 13.3 22.4 29.9 77.9 64.0 217.2
08/05 12:00 10.1 61 5.77 2.9 26 41 1019.3 0 13.7 22.7 30.6 79.8 66.3 225.5
08/05 11:50 9.6 62 5.68 2.7 22 32 1019.5 0 13.5 22.7 30.5 79.4 65.6 223.0
08/05 11:40 9.7 62 5.72 2.8 24 33 1019.5 0 13.6 22.7 30.6 79.7 66.0 224.5
08/05 11:30 10 62 5.83 3.1 24 39 1019.3 0 13.8 22.8 30.9 80.5 67.2 228.4
08/05 11:20 9.7 60 5.53 2.3 20 28 1019.2 0 13.2 22.4 29.9 77.8 63.7 216.1
08/05 11:10 9.2 60 5.36 1.9 24 30 1018.9 0 12.9 22.2 29.4 76.5 61.9 209.9
08/05 11:00 9.6 61 5.59 2.5 17 37 1018.9 0 13.3 22.5 30.1 78.5 64.5 218.9
08/05 10:50 9.3 62 5.57 2.4 19 24 1018.9 0 13.3 22.5 30.2 78.6 64.5 218.9
08/05 10:40 9.2 62 5.54 2.3 17 24 1018.6 0 13.2 22.5 30.1 78.3 64.2 217.8
08/05 10:30 9 63 5.56 2.3 19 32 1018.5 0 13.3 22.6 30.2 78.7 64.6 219.2
08/05 10:20 8.7 62 5.36 1.8 13 20 1018.3 0 12.9 22.3 29.6 77.0 62.3 211.1
08/05 10:10 8.3 64 5.4 1.9 22 32 1018.2 0 13.0 22.5 29.9 77.8 63.1 213.9
08/05 10:00 8.1 65 5.41 1.9 22 44 1018.1 0 13.0 22.6 30.0 78.1 63.4 214.9
08/05 09:50 8 68 5.62 2.5 13 19 1018.3 0 13.5 22.9 30.8 80.3 66.1 224.6
08/05 09:40 7.8 68 5.55 2.3 22 28 1018.3 0 13.3 22.9 30.6 79.8 65.4 222.0
08/05 09:30 7.8 69 5.63 2.5 17 33 1018.5 0 13.5 23.0 30.9 80.7 66.4 225.6
08/05 09:20 7.4 70 5.57 2.3 13 20 1018.5 0 13.4 23.0 30.9 80.4 66.0 224.1
08/05 09:10 7.2 73 5.73 2.7 20 28 1018.3 0 13.7 23.3 31.6 82.3 68.2 231.8
08/05 09:00 7 74 5.74 2.7 22 41 1018.5 0 13.8 23.4 31.7 82.6 68.6 232.9
08/05 08:50 6.8 73 5.59 2.3 26 39 1018.3 0.2 13.4 23.2 31.2 81.2 66.8 226.6
08/05 08:40 6.6 73 5.51 2.1 20 26 1018.2 0.2 13.3 23.1 30.9 80.6 65.9 223.5
08/05 08:30 6.4 74 5.52 2.1 19 39 1018.1 0.2 13.3 23.2 31.0 80.9 66.2 224.5
08/05 08:20 6.1 74 5.41 1.8 26 35 1017.9 0.2 13.1 23.1 30.7 80.0 65.0 220.3
08/05 08:10 6 76 5.52 2.1 28 32 1017.9 0.2 13.3 23.3 31.2 81.3 66.5 225.6
08/05 08:00 5.6 79 5.59 2.3 24 48 1017.8 0.2 13.5 23.5 31.6 82.4 67.8 230.0
08/05 07:50 5.4 80 5.59 2.2 22 30 1017.6 0.2 13.5 23.5 31.7 82.6 67.9 230.5
08/05 07:40 5.3 80 5.55 2.1 24 30 1017.4 0.2 13.4 23.5 31.6 82.3 67.5 228.9
08/05 07:30 5 81 5.51 2 20 39 1017.4 0.2 13.3 23.5 31.5 82.2 67.2 227.9
08/05 07:20 5.1 81 5.54 2.1 20 28 1017.4 0.2 13.4 23.5 31.6 82.4 67.5 229.1
08/05 07:10 4.9 81 5.47 1.9 22 32 1017.3 0.2 13.2 23.4 31.4 81.8 66.8 226.4
08/05 07:00 4.8 82 5.5 2 24 41 1017.1 0.2 13.3 23.5 31.5 82.3 67.2 228.0
08/05 06:50 4.7 82 5.47 1.9 19 26 1017.2 0.2 13.3 23.5 31.5 82.0 66.9 226.9
08/05 06:40 4.5 82 5.39 1.7 24 33 1017.2 0.2 13.1 23.4 31.2 81.4 66.0 223.8
08/05 06:30 4.3 82 5.32 1.5 20 46 1017.1 0.2 12.9 23.3 31.0 80.8 65.3 221.1
08/05 06:20 4.3 82 5.32 1.5 24 33 1017.1 0.2 12.9 23.3 31.0 80.8 65.3 221.1
08/05 06:10 4.3 83 5.39 1.7 30 39 1016.9 0.2 13.1 23.5 31.3 81.6 66.2 224.3
08/05 06:00 4.2 84 5.42 1.7 24 35 1017.1 0.2 13.2 23.5 31.5 82.0 66.7 226.0
08/05 05:50 4.3 83 5.39 1.7 26 33 1017.1 0.2 13.1 23.5 31.3 81.6 66.2 224.3
08/05 05:40 4.3 83 5.39 1.7 24 32 1016.9 0.2 13.1 23.5 31.3 81.6 66.2 224.3
08/05 05:30 4.5 81 5.33 1.5 26 35 1016.6 0.2 13.0 23.3 31.0 80.7 65.2 220.9
08/05 05:20 4.4 81 5.29 1.4 26 33 1016.5 0.2 12.9 23.3 30.8 80.4 64.8 219.3
08/05 05:10 4.2 81 5.22 1.2 30 39 1016.5 0.2 12.7 23.2 30.6 79.8 64.0 216.6
08/05 05:00 4.3 81 5.26 1.3 28 44 1016.6 0.2 12.8 23.2 30.8 80.2 64.5 218.2
08/05 04:50 4.4 81 5.29 1.4 32 41 1016.5 0.2 12.9 23.3 30.8 80.4 64.8 219.3
08/05 04:40 4.4 81 5.29 1.4 28 35 1016.5 0.2 12.9 23.3 30.8 80.4 64.8 219.3
08/05 04:30 4.3 82 5.32 1.5 26 39 1016.5 0.2 12.9 23.3 31.0 80.8 65.2 221.0
08/05 04:20 4.3 82 5.32 1.5 24 30 1016.4 0.2 12.9 23.3 31.0 80.8 65.2 220.9
08/05 04:10 4.3 82 5.32 1.5 26 37 1016.4 0.2 12.9 23.3 31.0 80.8 65.2 220.9
08/05 04:00 4.2 83 5.35 1.6 24 37 1016.4 0.2 13.0 23.4 31.1 81.2 65.7 222.6
08/05 03:50 4.1 83 5.32 1.5 26 41 1016.5 0.2 13.0 23.4 31.1 81.0 65.4 221.5
08/05 03:40 4.5 82 5.39 1.7 28 39 1016.6 0.2 13.1 23.4 31.2 81.3 66.0 223.7
08/05 03:30 4.3 83 5.39 1.7 22 35 1016.7 0.2 13.1 23.4 31.3 81.6 66.2 224.2
08/05 03:20 4.2 84 5.42 1.7 26 33 1016.7 0.2 13.2 23.5 31.4 82.0 66.7 225.9
08/05 03:10 4.2 84 5.42 1.7 26 30 1016.9 0.2 13.2 23.5 31.4 82.0 66.7 226.0
08/05 03:00 4.1 84 5.38 1.6 24 37 1016.9 0.2 13.1 23.5 31.3 81.7 66.2 224.4
08/05 02:50 4 85 5.41 1.7 20 28 1016.8 0.2 13.1 23.6 31.5 82.1 66.7 226.1
08/05 02:40 3.9 84 5.31 1.4 19 24 1016.7 0.2 12.9 23.4 31.1 81.1 65.5 221.6
08/05 02:30 4 85 5.41 1.7 24 39 1016.8 0.2 13.1 23.6 31.5 82.1 66.7 226.1
08/05 02:20 3.8 84 5.27 1.4 22 30 1016.8 0.2 12.9 23.4 31.0 80.8 65.0 220.1
08/05 02:10 3.6 85 5.27 1.3 26 37 1016.6 0.2 12.9 23.4 31.1 81.0 65.2 220.6
08/05 02:00 3.6 85 5.27 1.3 30 43 1016.7 0.2 12.9 23.4 31.1 81.0 65.2 220.6
08/05 01:50 3.6 85 5.27 1.3 32 43 1016.6 0.2 12.9 23.4 31.1 81.0 65.2 220.6
08/05 01:40 3.3 86 5.22 1.2 28 33 1016.4 0.2 12.8 23.4 31.0 80.7 64.8 219.1
08/05 01:30 3.2 85 5.13 0.9 28 43 1016.5 0.2 12.6 23.3 30.7 79.9 63.6 215.1
08/05 01:20 2.9 86 5.08 0.8 24 32 1016.8 0.2 12.5 23.3 30.6 79.7 63.2 213.7
08/05 01:10 2.9 86 5.08 0.8 26 32 1016.8 0.2 12.5 23.3 30.6 79.7 63.2 213.7
08/05 01:00 2.8 86 5.05 0.7 24 37 1017.1 0.2 12.4 23.3 30.5 79.5 62.9 212.6
08/05 00:50 2.7 86 5.02 0.6 19 26 1017.2 0.2 12.4 23.3 30.4 79.3 62.6 211.5
08/05 00:40 2.7 85 4.96 0.4 24 35 1017.2 0.2 12.2 23.2 30.2 78.6 61.8 208.7
08/05 00:30 2.7 85 4.96 0.4 26 44 1017.1 0.2 12.2 23.2 30.2 78.6 61.8 208.7
08/05 00:20 2.8 85 4.99 0.5 26 41 1016.9 0.2 12.3 23.2 30.3 78.8 62.1 209.8
08/05 00:10 2.6 85 4.92 0.3 24 35 1016.9 0.2 12.1 23.1 30.1 78.3 61.4 207.0
08/05 00:00 2.4 85 4.86 0.1 26 46 1017.1 0.2 12.0 23.1 29.9 77.8 60.7 204.8
07/05 23:50 2.2 86 4.85 0.1 19 30 1017.3 0.2 12.0 23.1 29.9 77.9 60.8 204.9
07/05 23:40 2.1 86 4.82 0 30 39 1017.1 0.2 11.9 23.1 29.8 77.7 60.4 203.7
07/05 23:30 1.9 86 4.75 -0.2 26 41 1017.2 0.2 11.8 23.0 29.6 77.1 59.7 200.9
07/05 23:20 2 85 4.73 -0.2 26 35 1017.3 0.2 11.8 23.0 29.5 76.8 59.3 199.8
07/05 23:10 1.9 84 4.64 -0.5 24 32 1017.3 0.2 11.6 22.9 29.2 76.0 58.2 195.8
07/05 23:00 1.8 83 4.55 -0.8 20 33 1017.4 0.2 11.4 22.8 28.9 75.1 57.1 191.9
07/05 22:50 1.8 83 4.55 -0.8 20 28 1017.5 0.2 11.4 22.8 28.9 75.1 57.1 191.9
07/05 22:40 1.6 83 4.49 -1 11 15 1017.5 0.2 11.2 22.7 28.7 74.7 56.4 189.6
07/05 22:30 1.7 82 4.47 -1 15 32 1017.5 0.2 11.2 22.7 28.6 74.4 56.1 188.5
07/05 22:20 1.7 81 4.42 -1.2 9 15 1017.8 0.2 11.1 22.6 28.4 73.9 55.5 186.2
07/05 22:10 1.6 81 4.39 -1.3 13 15 1018 0.2 11.0 22.6 28.3 73.6 55.2 185.1
07/05 22:00 1.5 82 4.41 -1.2 13 24 1018 0.2 11.1 22.6 28.5 74.0 55.5 186.2
07/05 21:50 1.1 83 4.34 -1.5 7 13 1018 0.2 10.9 22.6 28.3 73.6 54.8 183.9
07/05 21:40 1 85 4.42 -1.2 19 28 1018.1 0.2 11.1 22.8 28.7 74.5 56.0 187.9
07/05 21:30 0.7 85 4.33 -1.5 11 24 1018.2 0.2 10.9 22.7 28.4 73.9 55.0 184.4
07/05 21:20 0.9 84 4.34 -1.5 15 28 1018.1 0.2 10.9 22.7 28.4 73.8 55.0 184.4
07/05 21:10 0.9 84 4.34 -1.5 17 24 1018.1 0.2 10.9 22.7 28.4 73.8 55.0 184.4
07/05 21:00 0.9 84 4.34 -1.5 13 26 1018.2 0.2 10.9 22.7 28.4 73.8 55.0 184.4
07/05 20:50 0.8 84 4.31 -1.6 9 13 1018.2 0.2 10.9 22.7 28.3 73.6 54.7 183.3
07/05 20:40 0.8 83 4.25 -1.8 11 15 1018.5 0.2 10.8 22.6 28.1 72.9 53.9 180.5
07/05 20:30 0.9 84 4.34 -1.5 13 22 1018.6 0.2 10.9 22.7 28.4 73.8 55.0 184.5
07/05 20:20 0.7 84 4.28 -1.7 15 20 1018.5 0.2 10.8 22.6 28.2 73.4 54.4 182.1
07/05 20:10 0.7 87 4.43 -1.2 13 19 1018.5 0.2 11.1 22.9 28.8 75.0 56.4 189.2
07/05 20:00 0.6 88 4.45 -1.2 9 17 1018.6 0.2 11.2 22.9 29.0 75.3 56.7 190.3

Last Refresh: 08-May-2026 12:08:02

Bureau of Meteorology